sensor_id;sensor_type;location;lat;lon;timestamp;P1;durP1;ratioP1;P2;durP2;ratioP2
48791;SDS011;34587;48.816;9.420;2024-02-28T00:01:25;23.25;;;12.55;;
48791;SDS011;34587;48.816;9.420;2024-02-28T00:03:51;22.80;;;11.73;;
48791;SDS011;34587;48.816;9.420;2024-02-28T00:06:16;30.83;;;12.05;;
48791;SDS011;34587;48.816;9.420;2024-02-28T00:08:42;25.90;;;12.55;;
48791;SDS011;34587;48.816;9.420;2024-02-28T00:11:07;20.73;;;10.93;;
48791;SDS011;34587;48.816;9.420;2024-02-28T00:13:33;21.40;;;11.80;;
48791;SDS011;34587;48.816;9.420;2024-02-28T00:15:58;25.67;;;11.27;;
48791;SDS011;34587;48.816;9.420;2024-02-28T00:18:23;27.27;;;12.60;;
48791;SDS011;34587;48.816;9.420;2024-02-28T00:20:48;25.58;;;11.88;;
48791;SDS011;34587;48.816;9.420;2024-02-28T00:23:14;26.35;;;12.23;;
48791;SDS011;34587;48.816;9.420;2024-02-28T00:25:39;27.17;;;12.38;;
48791;SDS011;34587;48.816;9.420;2024-02-28T00:28:04;26.05;;;11.52;;
48791;SDS011;34587;48.816;9.420;2024-02-28T00:30:30;25.67;;;11.93;;
48791;SDS011;34587;48.816;9.420;2024-02-28T00:32:57;22.15;;;11.55;;
48791;SDS011;34587;48.816;9.420;2024-02-28T00:35:22;24.38;;;11.95;;
48791;SDS011;34587;48.816;9.420;2024-02-28T00:37:47;29.48;;;12.55;;
48791;SDS011;34587;48.816;9.420;2024-02-28T00:40:12;23.85;;;11.57;;
48791;SDS011;34587;48.816;9.420;2024-02-28T00:42:38;23.88;;;11.93;;
48791;SDS011;34587;48.816;9.420;2024-02-28T00:45:03;33.42;;;14.80;;
48791;SDS011;34587;48.816;9.420;2024-02-28T00:47:28;26.25;;;12.48;;
48791;SDS011;34587;48.816;9.420;2024-02-28T00:49:54;29.73;;;12.93;;
48791;SDS011;34587;48.816;9.420;2024-02-28T00:52:19;31.85;;;13.63;;
48791;SDS011;34587;48.816;9.420;2024-02-28T00:54:44;28.63;;;14.77;;
48791;SDS011;34587;48.816;9.420;2024-02-28T00:57:10;25.45;;;12.85;;
48791;SDS011;34587;48.816;9.420;2024-02-28T00:59:35;30.75;;;12.40;;
48791;SDS011;34587;48.816;9.420;2024-02-28T05:17:09;27.77;;;12.40;;
48791;SDS011;34587;48.816;9.420;2024-02-28T05:19:35;30.30;;;13.18;;
48791;SDS011;34587;48.816;9.420;2024-02-28T05:22:00;32.03;;;14.43;;
48791;SDS011;34587;48.816;9.420;2024-02-28T05:24:26;32.00;;;13.65;;
48791;SDS011;34587;48.816;9.420;2024-02-28T05:26:51;28.02;;;13.23;;
48791;SDS011;34587;48.816;9.420;2024-02-28T05:29:17;34.45;;;14.50;;
48791;SDS011;34587;48.816;9.420;2024-02-28T05:31:42;42.88;;;17.88;;
48791;SDS011;34587;48.816;9.420;2024-02-28T05:34:07;27.90;;;14.00;;
48791;SDS011;34587;48.816;9.420;2024-02-28T05:36:33;28.98;;;13.40;;
48791;SDS011;34587;48.816;9.420;2024-02-28T05:38:59;26.20;;;12.75;;
48791;SDS011;34587;48.816;9.420;2024-02-28T05:41:26;35.47;;;14.10;;
48791;SDS011;34587;48.816;9.420;2024-02-28T05:43:51;29.60;;;13.13;;
48791;SDS011;34587;48.816;9.420;2024-02-28T05:46:17;33.70;;;13.90;;
48791;SDS011;34587;48.816;9.420;2024-02-28T05:48:43;37.80;;;17.65;;
48791;SDS011;34587;48.816;9.420;2024-02-28T05:51:10;70.18;;;23.48;;
48791;SDS011;34587;48.816;9.420;2024-02-28T05:53:36;28.13;;;13.55;;
48791;SDS011;34587;48.816;9.420;2024-02-28T05:56:03;33.28;;;13.40;;
48791;SDS011;34587;48.816;9.420;2024-02-28T05:58:28;35.80;;;13.18;;
48791;SDS011;34587;48.816;9.420;2024-02-28T06:00:54;27.45;;;14.07;;
48791;SDS011;34587;48.816;9.420;2024-02-28T06:03:19;31.15;;;13.35;;
48791;SDS011;34587;48.816;9.420;2024-02-28T06:05:44;30.88;;;14.07;;
48791;SDS011;34587;48.816;9.420;2024-02-28T06:08:10;33.33;;;15.10;;
48791;SDS011;34587;48.816;9.420;2024-02-28T06:10:35;28.10;;;12.98;;
48791;SDS011;34587;48.816;9.420;2024-02-28T06:13:01;22.98;;;11.25;;
48791;SDS011;34587;48.816;9.420;2024-02-28T06:15:27;27.08;;;13.18;;
48791;SDS011;34587;48.816;9.420;2024-02-28T06:17:52;29.95;;;13.32;;
48791;SDS011;34587;48.816;9.420;2024-02-28T06:20:18;28.80;;;12.95;;
48791;SDS011;34587;48.816;9.420;2024-02-28T06:22:43;28.48;;;11.38;;
48791;SDS011;34587;48.816;9.420;2024-02-28T06:25:08;29.38;;;13.20;;
48791;SDS011;34587;48.816;9.420;2024-02-28T06:27:44;22.95;;;11.32;;
48791;SDS011;34587;48.816;9.420;2024-02-28T06:30:09;27.10;;;11.88;;
48791;SDS011;34587;48.816;9.420;2024-02-28T06:32:35;24.38;;;10.13;;
48791;SDS011;34587;48.816;9.420;2024-02-28T06:35:01;25.60;;;11.45;;
48791;SDS011;34587;48.816;9.420;2024-02-28T06:37:26;21.15;;;11.27;;
48791;SDS011;34587;48.816;9.420;2024-02-28T06:39:52;21.25;;;10.73;;
48791;SDS011;34587;48.816;9.420;2024-02-28T06:42:18;28.13;;;12.35;;
48791;SDS011;34587;48.816;9.420;2024-02-28T06:44:43;26.38;;;12.10;;
48791;SDS011;34587;48.816;9.420;2024-02-28T06:47:09;30.55;;;11.95;;
48791;SDS011;34587;48.816;9.420;2024-02-28T06:49:34;20.80;;;11.85;;
48791;SDS011;34587;48.816;9.420;2024-02-28T06:51:59;29.90;;;13.23;;
48791;SDS011;34587;48.816;9.420;2024-02-28T06:54:26;36.08;;;16.17;;
48791;SDS011;34587;48.816;9.420;2024-02-28T06:56:52;28.85;;;13.50;;
48791;SDS011;34587;48.816;9.420;2024-02-28T06:59:17;28.13;;;13.23;;
48791;SDS011;34587;48.816;9.420;2024-02-28T07:01:42;25.98;;;11.65;;
48791;SDS011;34587;48.816;9.420;2024-02-28T07:04:08;25.27;;;11.20;;
48791;SDS011;34587;48.816;9.420;2024-02-28T07:06:33;23.00;;;11.80;;
48791;SDS011;34587;48.816;9.420;2024-02-28T07:08:58;20.77;;;11.43;;
48791;SDS011;34587;48.816;9.420;2024-02-28T07:11:24;26.23;;;11.35;;
48791;SDS011;34587;48.816;9.420;2024-02-28T07:13:49;19.42;;;11.52;;
48791;SDS011;34587;48.816;9.420;2024-02-28T07:16:14;24.58;;;10.70;;
48791;SDS011;34587;48.816;9.420;2024-02-28T07:18:40;22.33;;;11.57;;
48791;SDS011;34587;48.816;9.420;2024-02-28T07:21:05;23.67;;;10.98;;
48791;SDS011;34587;48.816;9.420;2024-02-28T07:23:31;24.80;;;11.23;;
48791;SDS011;34587;48.816;9.420;2024-02-28T07:25:57;22.27;;;11.18;;
48791;SDS011;34587;48.816;9.420;2024-02-28T07:28:22;25.85;;;12.35;;
48791;SDS011;34587;48.816;9.420;2024-02-28T07:30:47;21.92;;;11.35;;
48791;SDS011;34587;48.816;9.420;2024-02-28T07:33:13;24.58;;;11.68;;
48791;SDS011;34587;48.816;9.420;2024-02-28T07:35:47;26.60;;;11.18;;
48791;SDS011;34587;48.816;9.420;2024-02-28T07:38:15;23.17;;;11.05;;
48791;SDS011;34587;48.816;9.420;2024-02-28T07:40:42;23.35;;;11.50;;
48791;SDS011;34587;48.816;9.420;2024-02-28T07:43:08;26.13;;;12.25;;
48791;SDS011;34587;48.816;9.420;2024-02-28T07:45:33;25.60;;;11.13;;
48791;SDS011;34587;48.816;9.420;2024-02-28T07:47:59;21.25;;;10.48;;
48791;SDS011;34587;48.816;9.420;2024-02-28T07:50:24;20.77;;;10.95;;
48791;SDS011;34587;48.816;9.420;2024-02-28T07:52:49;23.90;;;11.32;;
48791;SDS011;34587;48.816;9.420;2024-02-28T07:55:15;24.13;;;11.25;;
48791;SDS011;34587;48.816;9.420;2024-02-28T07:57:40;22.80;;;11.27;;
48791;SDS011;34587;48.816;9.420;2024-02-28T08:00:06;25.75;;;11.35;;
48791;SDS011;34587;48.816;9.420;2024-02-28T08:02:31;20.63;;;10.48;;
48791;SDS011;34587;48.816;9.420;2024-02-28T08:04:57;23.67;;;11.60;;
48791;SDS011;34587;48.816;9.420;2024-02-28T08:07:22;19.23;;;10.98;;
48791;SDS011;34587;48.816;9.420;2024-02-28T08:09:47;21.77;;;11.10;;
48791;SDS011;34587;48.816;9.420;2024-02-28T08:12:13;23.80;;;11.25;;
48791;SDS011;34587;48.816;9.420;2024-02-28T08:14:38;26.27;;;11.77;;
48791;SDS011;34587;48.816;9.420;2024-02-28T08:17:03;21.63;;;10.40;;
48791;SDS011;34587;48.816;9.420;2024-02-28T08:19:29;24.42;;;10.85;;
48791;SDS011;34587;48.816;9.420;2024-02-28T08:21:54;22.00;;;11.05;;
48791;SDS011;34587;48.816;9.420;2024-02-28T08:24:20;41.13;;;15.25;;
48791;SDS011;34587;48.816;9.420;2024-02-28T08:26:45;35.35;;;15.73;;
48791;SDS011;34587;48.816;9.420;2024-02-28T08:29:10;35.58;;;16.20;;
48791;SDS011;34587;48.816;9.420;2024-02-28T08:31:42;31.20;;;15.77;;
48791;SDS011;34587;48.816;9.420;2024-02-28T08:34:08;27.17;;;13.27;;
48791;SDS011;34587;48.816;9.420;2024-02-28T08:36:34;34.78;;;13.50;;
48791;SDS011;34587;48.816;9.420;2024-02-28T08:39:00;25.67;;;12.40;;
48791;SDS011;34587;48.816;9.420;2024-02-28T08:41:25;33.72;;;14.20;;
48791;SDS011;34587;48.816;9.420;2024-02-28T08:43:51;28.17;;;12.57;;
48791;SDS011;34587;48.816;9.420;2024-02-28T08:46:16;24.00;;;13.32;;
48791;SDS011;34587;48.816;9.420;2024-02-28T08:48:41;28.20;;;12.23;;
48791;SDS011;34587;48.816;9.420;2024-02-28T08:51:07;43.17;;;16.75;;
48791;SDS011;34587;48.816;9.420;2024-02-28T08:53:32;25.45;;;12.40;;
48791;SDS011;34587;48.816;9.420;2024-02-28T08:55:58;24.90;;;11.95;;
48791;SDS011;34587;48.816;9.420;2024-02-28T08:58:23;20.08;;;11.02;;
48791;SDS011;34587;48.816;9.420;2024-02-28T09:00:49;25.50;;;12.35;;
48791;SDS011;34587;48.816;9.420;2024-02-28T09:03:14;29.65;;;12.55;;
48791;SDS011;34587;48.816;9.420;2024-02-28T09:05:39;23.25;;;11.40;;
48791;SDS011;34587;48.816;9.420;2024-02-28T09:08:04;25.73;;;12.50;;
48791;SDS011;34587;48.816;9.420;2024-02-28T09:10:30;24.95;;;11.90;;
48791;SDS011;34587;48.816;9.420;2024-02-28T09:12:59;23.73;;;11.52;;
48791;SDS011;34587;48.816;9.420;2024-02-28T09:15:24;25.17;;;12.07;;
48791;SDS011;34587;48.816;9.420;2024-02-28T09:17:50;25.52;;;11.77;;
48791;SDS011;34587;48.816;9.420;2024-02-28T09:20:15;29.20;;;11.60;;
48791;SDS011;34587;48.816;9.420;2024-02-28T09:22:40;28.08;;;12.77;;
48791;SDS011;34587;48.816;9.420;2024-02-28T09:25:06;22.25;;;11.38;;
48791;SDS011;34587;48.816;9.420;2024-02-28T09:27:33;29.25;;;12.15;;
48791;SDS011;34587;48.816;9.420;2024-02-28T09:29:58;27.02;;;12.60;;
48791;SDS011;34587;48.816;9.420;2024-02-28T09:32:24;23.17;;;12.40;;
48791;SDS011;34587;48.816;9.420;2024-02-28T09:34:49;29.65;;;13.57;;
48791;SDS011;34587;48.816;9.420;2024-02-28T09:37:14;26.35;;;11.55;;
48791;SDS011;34587;48.816;9.420;2024-02-28T09:39:41;26.77;;;12.32;;
48791;SDS011;34587;48.816;9.420;2024-02-28T09:42:07;41.95;;;12.52;;
48791;SDS011;34587;48.816;9.420;2024-02-28T09:44:33;23.50;;;11.85;;
48791;SDS011;34587;48.816;9.420;2024-02-28T09:46:59;37.55;;;15.60;;
48791;SDS011;34587;48.816;9.420;2024-02-28T09:49:24;26.95;;;12.32;;
48791;SDS011;34587;48.816;9.420;2024-02-28T09:51:51;26.48;;;13.07;;
48791;SDS011;34587;48.816;9.420;2024-02-28T09:54:17;29.13;;;12.30;;
48791;SDS011;34587;48.816;9.420;2024-02-28T09:56:43;23.05;;;11.23;;
48791;SDS011;34587;48.816;9.420;2024-02-28T09:59:08;30.33;;;12.68;;
48791;SDS011;34587;48.816;9.420;2024-02-28T10:01:43;24.45;;;11.50;;
48791;SDS011;34587;48.816;9.420;2024-02-28T10:04:12;26.45;;;12.73;;
48791;SDS011;34587;48.816;9.420;2024-02-28T10:06:41;26.00;;;12.35;;
48791;SDS011;34587;48.816;9.420;2024-02-28T10:09:06;29.63;;;12.05;;
48791;SDS011;34587;48.816;9.420;2024-02-28T10:11:32;24.83;;;12.25;;
48791;SDS011;34587;48.816;9.420;2024-02-28T10:14:00;23.23;;;12.02;;
48791;SDS011;34587;48.816;9.420;2024-02-28T10:16:26;33.97;;;14.05;;
48791;SDS011;34587;48.816;9.420;2024-02-28T10:18:52;35.42;;;14.02;;
48791;SDS011;34587;48.816;9.420;2024-02-28T10:21:17;32.13;;;13.75;;
48791;SDS011;34587;48.816;9.420;2024-02-28T10:23:43;38.65;;;13.68;;
48791;SDS011;34587;48.816;9.420;2024-02-28T10:26:09;29.67;;;13.98;;
48791;SDS011;34587;48.816;9.420;2024-02-28T10:28:41;37.72;;;13.55;;
48791;SDS011;34587;48.816;9.420;2024-02-28T10:31:08;32.70;;;13.30;;
48791;SDS011;34587;48.816;9.420;2024-02-28T10:33:35;36.53;;;14.57;;
48791;SDS011;34587;48.816;9.420;2024-02-28T10:36:01;37.42;;;14.25;;
48791;SDS011;34587;48.816;9.420;2024-02-28T10:38:27;29.38;;;12.57;;
48791;SDS011;34587;48.816;9.420;2024-02-28T10:40:53;26.63;;;12.55;;
48791;SDS011;34587;48.816;9.420;2024-02-28T10:43:19;33.50;;;13.70;;
48791;SDS011;34587;48.816;9.420;2024-02-28T10:45:45;31.42;;;12.65;;
48791;SDS011;34587;48.816;9.420;2024-02-28T10:48:11;28.13;;;12.23;;
48791;SDS011;34587;48.816;9.420;2024-02-28T10:50:39;29.70;;;12.23;;
48791;SDS011;34587;48.816;9.420;2024-02-28T10:53:05;34.75;;;13.30;;
48791;SDS011;34587;48.816;9.420;2024-02-28T10:55:39;28.60;;;11.60;;
48791;SDS011;34587;48.816;9.420;2024-02-28T10:58:09;31.10;;;12.35;;
48791;SDS011;34587;48.816;9.420;2024-02-28T11:00:39;36.70;;;12.73;;
48791;SDS011;34587;48.816;9.420;2024-02-28T11:03:12;27.92;;;10.55;;
48791;SDS011;34587;48.816;9.420;2024-02-28T11:05:41;30.90;;;12.13;;
48791;SDS011;34587;48.816;9.420;2024-02-28T11:08:08;30.45;;;13.35;;
48791;SDS011;34587;48.816;9.420;2024-02-28T11:10:40;28.02;;;11.25;;
48791;SDS011;34587;48.816;9.420;2024-02-28T11:13:07;26.15;;;11.90;;
48791;SDS011;34587;48.816;9.420;2024-02-28T11:15:35;30.05;;;11.90;;
48791;SDS011;34587;48.816;9.420;2024-02-28T11:18:07;26.10;;;10.60;;
48791;SDS011;34587;48.816;9.420;2024-02-28T11:20:37;27.25;;;11.23;;
48791;SDS011;34587;48.816;9.420;2024-02-28T11:23:05;23.48;;;10.93;;
48791;SDS011;34587;48.816;9.420;2024-02-28T11:25:31;26.98;;;12.07;;
48791;SDS011;34587;48.816;9.420;2024-02-28T11:27:56;20.55;;;11.02;;
48791;SDS011;34587;48.816;9.420;2024-02-28T11:30:22;32.60;;;12.50;;
48791;SDS011;34587;48.816;9.420;2024-02-28T11:32:47;27.25;;;12.27;;
48791;SDS011;34587;48.816;9.420;2024-02-28T11:35:12;23.63;;;11.55;;
48791;SDS011;34587;48.816;9.420;2024-02-28T11:37:38;29.05;;;11.43;;
48791;SDS011;34587;48.816;9.420;2024-02-28T11:40:06;29.33;;;11.75;;
48791;SDS011;34587;48.816;9.420;2024-02-28T11:42:33;24.80;;;12.05;;
48791;SDS011;34587;48.816;9.420;2024-02-28T11:44:59;22.50;;;10.88;;
48791;SDS011;34587;48.816;9.420;2024-02-28T11:47:25;30.52;;;11.85;;
48791;SDS011;34587;48.816;9.420;2024-02-28T11:49:50;36.85;;;12.05;;
48791;SDS011;34587;48.816;9.420;2024-02-28T11:52:16;26.80;;;10.25;;
48791;SDS011;34587;48.816;9.420;2024-02-28T11:54:41;32.55;;;12.02;;
48791;SDS011;34587;48.816;9.420;2024-02-28T11:57:10;28.30;;;11.70;;
48791;SDS011;34587;48.816;9.420;2024-02-28T11:59:39;29.00;;;12.05;;
48791;SDS011;34587;48.816;9.420;2024-02-28T12:02:11;29.42;;;11.60;;
48791;SDS011;34587;48.816;9.420;2024-02-28T12:04:37;40.42;;;14.10;;
48791;SDS011;34587;48.816;9.420;2024-02-28T12:07:02;31.95;;;12.93;;
48791;SDS011;34587;48.816;9.420;2024-02-28T12:09:28;27.08;;;10.68;;
48791;SDS011;34587;48.816;9.420;2024-02-28T12:11:55;30.95;;;12.63;;
48791;SDS011;34587;48.816;9.420;2024-02-28T12:14:20;29.48;;;11.65;;
48791;SDS011;34587;48.816;9.420;2024-02-28T12:16:46;25.42;;;10.43;;
48791;SDS011;34587;48.816;9.420;2024-02-28T12:19:13;30.70;;;11.43;;
48791;SDS011;34587;48.816;9.420;2024-02-28T12:21:40;25.13;;;12.07;;
48791;SDS011;34587;48.816;9.420;2024-02-28T12:24:09;28.63;;;13.55;;
48791;SDS011;34587;48.816;9.420;2024-02-28T12:26:35;27.35;;;11.88;;
48791;SDS011;34587;48.816;9.420;2024-02-28T12:29:01;32.55;;;11.88;;
48791;SDS011;34587;48.816;9.420;2024-02-28T12:31:27;28.27;;;11.57;;
48791;SDS011;34587;48.816;9.420;2024-02-28T12:33:52;23.80;;;10.70;;
48791;SDS011;34587;48.816;9.420;2024-02-28T12:36:19;31.83;;;12.70;;
48791;SDS011;34587;48.816;9.420;2024-02-28T12:38:44;22.20;;;10.60;;
48791;SDS011;34587;48.816;9.420;2024-02-28T12:41:10;25.65;;;11.27;;
48791;SDS011;34587;48.816;9.420;2024-02-28T12:43:35;29.67;;;12.40;;
48791;SDS011;34587;48.816;9.420;2024-02-28T12:46:01;22.33;;;10.23;;
48791;SDS011;34587;48.816;9.420;2024-02-28T12:48:26;24.50;;;10.05;;
48791;SDS011;34587;48.816;9.420;2024-02-28T12:50:52;23.85;;;10.93;;
48791;SDS011;34587;48.816;9.420;2024-02-28T12:53:18;25.77;;;11.68;;
48791;SDS011;34587;48.816;9.420;2024-02-28T12:55:43;25.88;;;10.63;;
48791;SDS011;34587;48.816;9.420;2024-02-28T12:58:09;28.23;;;10.82;;
48791;SDS011;34587;48.816;9.420;2024-02-28T13:00:35;21.50;;;9.77;;
48791;SDS011;34587;48.816;9.420;2024-02-28T13:03:01;27.75;;;10.20;;
48791;SDS011;34587;48.816;9.420;2024-02-28T13:05:26;23.30;;;10.68;;
48791;SDS011;34587;48.816;9.420;2024-02-28T13:07:51;28.42;;;10.60;;
48791;SDS011;34587;48.816;9.420;2024-02-28T13:10:17;25.70;;;9.88;;
48791;SDS011;34587;48.816;9.420;2024-02-28T13:12:43;24.38;;;11.30;;
48791;SDS011;34587;48.816;9.420;2024-02-28T13:15:08;21.42;;;10.27;;
48791;SDS011;34587;48.816;9.420;2024-02-28T13:17:35;24.58;;;10.85;;
48791;SDS011;34587;48.816;9.420;2024-02-28T13:20:00;21.83;;;10.30;;
48791;SDS011;34587;48.816;9.420;2024-02-28T13:22:26;26.35;;;10.15;;
48791;SDS011;34587;48.816;9.420;2024-02-28T13:24:51;24.13;;;11.63;;
48791;SDS011;34587;48.816;9.420;2024-02-28T13:27:16;25.48;;;11.55;;
48791;SDS011;34587;48.816;9.420;2024-02-28T13:29:42;26.50;;;10.25;;
48791;SDS011;34587;48.816;9.420;2024-02-28T13:32:07;20.08;;;10.02;;
48791;SDS011;34587;48.816;9.420;2024-02-28T13:34:32;26.30;;;10.07;;
48791;SDS011;34587;48.816;9.420;2024-02-28T13:36:57;22.08;;;10.52;;
48791;SDS011;34587;48.816;9.420;2024-02-28T13:39:23;22.40;;;11.07;;
48791;SDS011;34587;48.816;9.420;2024-02-28T13:41:51;36.95;;;15.50;;
48791;SDS011;34587;48.816;9.420;2024-02-28T13:44:17;30.02;;;10.75;;
48791;SDS011;34587;48.816;9.420;2024-02-28T13:46:44;24.10;;;11.07;;
48791;SDS011;34587;48.816;9.420;2024-02-28T13:49:10;25.65;;;10.95;;
48791;SDS011;34587;48.816;9.420;2024-02-28T13:51:35;25.13;;;10.32;;
48791;SDS011;34587;48.816;9.420;2024-02-28T13:54:01;40.10;;;14.43;;
48791;SDS011;34587;48.816;9.420;2024-02-28T13:56:27;30.42;;;13.05;;
48791;SDS011;34587;48.816;9.420;2024-02-28T13:58:52;24.13;;;9.98;;
48791;SDS011;34587;48.816;9.420;2024-02-28T14:01:17;21.52;;;8.95;;
48791;SDS011;34587;48.816;9.420;2024-02-28T14:03:44;25.92;;;10.93;;
48791;SDS011;34587;48.816;9.420;2024-02-28T14:06:09;39.50;;;16.00;;
48791;SDS011;34587;48.816;9.420;2024-02-28T14:08:35;23.25;;;11.93;;
48791;SDS011;34587;48.816;9.420;2024-02-28T14:11:00;21.85;;;10.95;;
48791;SDS011;34587;48.816;9.420;2024-02-28T14:13:26;22.42;;;10.07;;
48791;SDS011;34587;48.816;9.420;2024-02-28T14:15:52;24.40;;;10.43;;
48791;SDS011;34587;48.816;9.420;2024-02-28T14:18:18;20.80;;;9.75;;
48791;SDS011;34587;48.816;9.420;2024-02-28T14:20:43;25.77;;;10.63;;
48791;SDS011;34587;48.816;9.420;2024-02-28T14:23:08;21.02;;;9.40;;
48791;SDS011;34587;48.816;9.420;2024-02-28T14:25:34;24.02;;;9.57;;
48791;SDS011;34587;48.816;9.420;2024-02-28T14:28:00;23.40;;;10.30;;
48791;SDS011;34587;48.816;9.420;2024-02-28T14:30:25;25.77;;;10.68;;
48791;SDS011;34587;48.816;9.420;2024-02-28T14:32:50;21.95;;;9.80;;
48791;SDS011;34587;48.816;9.420;2024-02-28T14:35:16;24.27;;;9.93;;
48791;SDS011;34587;48.816;9.420;2024-02-28T14:37:41;20.92;;;10.65;;
48791;SDS011;34587;48.816;9.420;2024-02-28T14:40:08;35.63;;;14.40;;
48791;SDS011;34587;48.816;9.420;2024-02-28T14:42:37;25.57;;;11.27;;
48791;SDS011;34587;48.816;9.420;2024-02-28T14:45:04;17.02;;;9.43;;
48791;SDS011;34587;48.816;9.420;2024-02-28T14:47:35;21.05;;;10.63;;
48791;SDS011;34587;48.816;9.420;2024-02-28T14:50:01;19.58;;;10.60;;
48791;SDS011;34587;48.816;9.420;2024-02-28T14:52:27;23.75;;;10.13;;
48791;SDS011;34587;48.816;9.420;2024-02-28T14:54:53;27.35;;;12.88;;
48791;SDS011;34587;48.816;9.420;2024-02-28T14:57:18;21.88;;;10.10;;
48791;SDS011;34587;48.816;9.420;2024-02-28T14:59:44;19.83;;;10.23;;
48791;SDS011;34587;48.816;9.420;2024-02-28T15:02:10;20.40;;;9.48;;
48791;SDS011;34587;48.816;9.420;2024-02-28T15:04:36;21.98;;;9.68;;
48791;SDS011;34587;48.816;9.420;2024-02-28T15:07:02;19.08;;;9.38;;
48791;SDS011;34587;48.816;9.420;2024-02-28T15:09:28;17.58;;;8.57;;
48791;SDS011;34587;48.816;9.420;2024-02-28T15:11:53;20.90;;;9.75;;
48791;SDS011;34587;48.816;9.420;2024-02-28T15:14:19;22.10;;;8.93;;
48791;SDS011;34587;48.816;9.420;2024-02-28T15:16:45;20.60;;;9.27;;
48791;SDS011;34587;48.816;9.420;2024-02-28T15:19:10;18.85;;;8.43;;
48791;SDS011;34587;48.816;9.420;2024-02-28T15:21:35;19.40;;;8.75;;
48791;SDS011;34587;48.816;9.420;2024-02-28T15:24:01;18.33;;;8.75;;
48791;SDS011;34587;48.816;9.420;2024-02-28T15:26:27;16.88;;;8.73;;
48791;SDS011;34587;48.816;9.420;2024-02-28T15:28:53;27.85;;;13.90;;
48791;SDS011;34587;48.816;9.420;2024-02-28T15:31:18;20.88;;;10.20;;
48791;SDS011;34587;48.816;9.420;2024-02-28T15:33:43;25.88;;;9.57;;
48791;SDS011;34587;48.816;9.420;2024-02-28T15:36:08;19.95;;;10.00;;
48791;SDS011;34587;48.816;9.420;2024-02-28T15:38:34;26.15;;;11.20;;
48791;SDS011;34587;48.816;9.420;2024-02-28T15:40:59;25.27;;;12.93;;
48791;SDS011;34587;48.816;9.420;2024-02-28T15:43:25;17.40;;;9.77;;
48791;SDS011;34587;48.816;9.420;2024-02-28T15:45:50;15.95;;;9.45;;
48791;SDS011;34587;48.816;9.420;2024-02-28T15:48:16;21.88;;;9.68;;
48791;SDS011;34587;48.816;9.420;2024-02-28T15:50:42;17.08;;;8.90;;
48791;SDS011;34587;48.816;9.420;2024-02-28T15:53:07;22.55;;;9.65;;
48791;SDS011;34587;48.816;9.420;2024-02-28T15:55:32;19.23;;;8.98;;
48791;SDS011;34587;48.816;9.420;2024-02-28T15:57:58;19.10;;;9.07;;
48791;SDS011;34587;48.816;9.420;2024-02-28T16:00:24;20.42;;;9.40;;
48791;SDS011;34587;48.816;9.420;2024-02-28T16:02:49;24.67;;;10.85;;
48791;SDS011;34587;48.816;9.420;2024-02-28T16:05:14;24.60;;;11.75;;
48791;SDS011;34587;48.816;9.420;2024-02-28T16:07:40;16.95;;;8.70;;
48791;SDS011;34587;48.816;9.420;2024-02-28T16:10:07;19.63;;;9.82;;
48791;SDS011;34587;48.816;9.420;2024-02-28T16:12:32;20.65;;;9.13;;
48791;SDS011;34587;48.816;9.420;2024-02-28T16:14:58;22.25;;;9.77;;
48791;SDS011;34587;48.816;9.420;2024-02-28T16:17:23;27.95;;;13.63;;
48791;SDS011;34587;48.816;9.420;2024-02-28T16:19:50;20.25;;;9.57;;
48791;SDS011;34587;48.816;9.420;2024-02-28T16:22:16;21.98;;;9.73;;
48791;SDS011;34587;48.816;9.420;2024-02-28T16:24:42;24.27;;;9.85;;
48791;SDS011;34587;48.816;9.420;2024-02-28T16:27:08;20.55;;;9.48;;
48791;SDS011;34587;48.816;9.420;2024-02-28T16:29:33;21.52;;;9.52;;
48791;SDS011;34587;48.816;9.420;2024-02-28T16:31:58;19.73;;;10.00;;
48791;SDS011;34587;48.816;9.420;2024-02-28T16:34:26;25.63;;;9.77;;
48791;SDS011;34587;48.816;9.420;2024-02-28T16:36:51;21.25;;;10.57;;
48791;SDS011;34587;48.816;9.420;2024-02-28T16:39:17;24.73;;;12.70;;
48791;SDS011;34587;48.816;9.420;2024-02-28T16:41:44;28.67;;;11.95;;
48791;SDS011;34587;48.816;9.420;2024-02-28T16:44:09;20.70;;;9.80;;
48791;SDS011;34587;48.816;9.420;2024-02-28T16:46:35;18.38;;;9.40;;
48791;SDS011;34587;48.816;9.420;2024-02-28T16:49:00;23.90;;;11.93;;
48791;SDS011;34587;48.816;9.420;2024-02-28T16:51:25;24.35;;;10.63;;
48791;SDS011;34587;48.816;9.420;2024-02-28T16:53:51;19.63;;;8.90;;
48791;SDS011;34587;48.816;9.420;2024-02-28T16:56:16;19.15;;;9.80;;
48791;SDS011;34587;48.816;9.420;2024-02-28T16:58:41;26.15;;;10.20;;
48791;SDS011;34587;48.816;9.420;2024-02-28T17:01:07;19.23;;;10.13;;
48791;SDS011;34587;48.816;9.420;2024-02-28T17:03:33;19.02;;;10.48;;
48791;SDS011;34587;48.816;9.420;2024-02-28T17:05:58;20.52;;;10.77;;
48791;SDS011;34587;48.816;9.420;2024-02-28T17:08:23;24.33;;;10.52;;
48791;SDS011;34587;48.816;9.420;2024-02-28T17:10:49;18.17;;;10.00;;
48791;SDS011;34587;48.816;9.420;2024-02-28T17:13:14;27.65;;;10.82;;
48791;SDS011;34587;48.816;9.420;2024-02-28T17:15:40;28.02;;;13.20;;
48791;SDS011;34587;48.816;9.420;2024-02-28T17:18:05;21.67;;;10.25;;
48791;SDS011;34587;48.816;9.420;2024-02-28T17:20:30;19.40;;;9.80;;
48791;SDS011;34587;48.816;9.420;2024-02-28T17:22:56;20.27;;;9.57;;
48791;SDS011;34587;48.816;9.420;2024-02-28T17:25:21;21.13;;;10.23;;
48791;SDS011;34587;48.816;9.420;2024-02-28T17:27:46;22.00;;;11.90;;
48791;SDS011;34587;48.816;9.420;2024-02-28T17:30:12;23.88;;;11.77;;
48791;SDS011;34587;48.816;9.420;2024-02-28T17:32:37;22.50;;;11.13;;
48791;SDS011;34587;48.816;9.420;2024-02-28T17:35:03;21.33;;;10.63;;
48791;SDS011;34587;48.816;9.420;2024-02-28T17:37:30;24.75;;;11.00;;
48791;SDS011;34587;48.816;9.420;2024-02-28T17:39:56;24.02;;;11.23;;
48791;SDS011;34587;48.816;9.420;2024-02-28T17:42:21;17.95;;;8.48;;
48791;SDS011;34587;48.816;9.420;2024-02-28T17:44:46;19.90;;;9.85;;
48791;SDS011;34587;48.816;9.420;2024-02-28T17:47:12;18.38;;;9.07;;
48791;SDS011;34587;48.816;9.420;2024-02-28T17:49:38;21.23;;;9.43;;
48791;SDS011;34587;48.816;9.420;2024-02-28T17:52:03;17.90;;;9.00;;
48791;SDS011;34587;48.816;9.420;2024-02-28T17:54:30;24.98;;;10.35;;
48791;SDS011;34587;48.816;9.420;2024-02-28T17:56:56;23.85;;;11.60;;
48791;SDS011;34587;48.816;9.420;2024-02-28T17:59:21;20.67;;;9.60;;
48791;SDS011;34587;48.816;9.420;2024-02-28T18:01:47;20.75;;;9.63;;
48791;SDS011;34587;48.816;9.420;2024-02-28T18:04:12;21.58;;;10.32;;
48791;SDS011;34587;48.816;9.420;2024-02-28T18:06:37;23.15;;;10.52;;
48791;SDS011;34587;48.816;9.420;2024-02-28T18:09:03;20.70;;;10.70;;
48791;SDS011;34587;48.816;9.420;2024-02-28T18:11:29;20.13;;;10.30;;
48791;SDS011;34587;48.816;9.420;2024-02-28T18:13:56;20.83;;;9.48;;
48791;SDS011;34587;48.816;9.420;2024-02-28T18:16:21;20.92;;;9.20;;
48791;SDS011;34587;48.816;9.420;2024-02-28T18:18:47;19.95;;;9.57;;
48791;SDS011;34587;48.816;9.420;2024-02-28T18:21:12;18.25;;;9.88;;
48791;SDS011;34587;48.816;9.420;2024-02-28T18:23:38;18.92;;;9.30;;
48791;SDS011;34587;48.816;9.420;2024-02-28T18:26:03;22.73;;;10.60;;
48791;SDS011;34587;48.816;9.420;2024-02-28T18:28:28;26.38;;;11.13;;
48791;SDS011;34587;48.816;9.420;2024-02-28T18:30:54;23.02;;;10.93;;